createdAt,value
2018-11-01T00:01:52.523Z,4.85
2018-11-01T00:04:24.396Z,4.50
2018-11-01T00:06:54.500Z,5.15
2018-11-01T00:09:28.590Z,5.17
2018-11-01T00:11:58.460Z,4.65
2018-11-01T00:14:32.200Z,4.40
2018-11-01T00:17:03.600Z,4.53
2018-11-01T00:19:35.456Z,3.98
2018-11-01T00:22:05.516Z,4.00
2018-11-01T00:24:35.335Z,4.90
2018-11-01T00:27:05.236Z,4.58
2018-11-01T00:29:35.104Z,4.75
2018-11-01T00:32:05.988Z,4.20
2018-11-01T00:34:40.568Z,5.00
2018-11-01T00:37:10.359Z,4.90
2018-11-01T00:39:41.184Z,5.30
2018-11-01T00:42:12.040Z,5.35
2018-11-01T00:44:42.834Z,5.17
2018-11-01T00:47:12.676Z,5.90
2018-11-01T00:49:46.192Z,4.90
2018-11-01T00:52:20.083Z,4.40
2018-11-01T00:54:49.928Z,5.50
2018-11-01T00:57:19.739Z,5.00
2018-11-01T00:59:50.572Z,4.95
2018-11-01T01:02:20.332Z,4.90
2018-11-01T01:04:50.148Z,4.67
2018-11-01T01:07:20.411Z,4.85
2018-11-01T01:09:51.412Z,5.08
2018-11-01T01:12:22.372Z,5.30
2018-11-01T01:14:54.131Z,5.10
2018-11-01T01:17:23.943Z,5.33
2018-11-01T01:19:54.764Z,4.78
2018-11-01T01:22:25.611Z,5.00
2018-11-01T01:25:00.260Z,5.40
2018-11-01T01:27:30.064Z,4.80
2018-11-01T01:30:00.872Z,4.70
2018-11-01T01:32:30.688Z,4.90
2018-11-01T01:35:00.488Z,5.70
2018-11-01T01:37:31.325Z,5.47
2018-11-01T01:40:01.151Z,4.60
2018-11-01T01:42:35.934Z,5.15
2018-11-01T01:45:08.408Z,4.67
2018-11-01T01:47:41.452Z,4.97
2018-11-01T01:50:13.412Z,5.12
2018-11-01T01:52:50.163Z,5.00
2018-11-01T01:55:19.975Z,4.90
2018-11-01T01:57:54.839Z,4.72
2018-11-01T02:00:25.659Z,5.05
2018-11-01T02:02:55.460Z,5.70
2018-11-01T02:05:27.363Z,4.42
2018-11-01T02:07:57.224Z,4.47
2018-11-01T02:10:30.251Z,4.60
2018-11-01T02:13:00.168Z,5.55
2018-11-01T02:15:29.916Z,4.97
2018-11-01T02:17:59.807Z,4.60
2018-11-01T02:20:32.784Z,4.65
2018-11-01T02:23:03.683Z,4.28
2018-11-01T02:25:34.525Z,4.35
2018-11-01T02:28:10.735Z,4.30
2018-11-01T02:30:46.272Z,4.08
2018-11-01T02:33:16.129Z,3.95
2018-11-01T02:35:45.956Z,3.95
2018-11-01T02:38:20.624Z,4.00
2018-11-01T02:40:51.384Z,4.22
2018-11-01T02:43:21.244Z,4.42
2018-11-01T02:45:59.291Z,4.72
2018-11-01T02:48:29.240Z,4.90
2018-11-01T02:51:02.152Z,5.62
2018-11-01T02:53:32.980Z,5.00
2018-11-01T02:56:09.584Z,4.67
2018-11-01T02:58:45.224Z,5.10
2018-11-01T03:01:17.387Z,5.10
2018-11-01T03:03:48.872Z,4.25
2018-11-01T03:06:19.064Z,4.58
2018-11-01T03:08:48.956Z,4.30
2018-11-01T03:11:20.051Z,4.70
2018-11-01T03:13:50.128Z,3.98
2018-11-01T03:16:20.920Z,4.08
2018-11-01T03:18:51.780Z,3.95
2018-11-01T03:21:21.746Z,3.90
2018-11-01T03:23:55.788Z,4.15
2018-11-01T03:26:26.700Z,3.60
2018-11-01T03:28:57.472Z,4.12
2018-11-01T03:31:27.488Z,4.53
2018-11-01T03:33:58.171Z,4.40
2018-11-01T03:36:29.551Z,3.70
2018-11-01T03:39:00.453Z,4.47
2018-11-01T03:41:31.628Z,4.92
2018-11-01T03:44:05.247Z,4.55
2018-11-01T03:46:37.623Z,5.25
2018-11-01T03:49:08.825Z,4.80
2018-11-01T03:51:39.658Z,5.10
2018-11-01T03:54:11.441Z,5.78
2018-11-01T03:56:43.207Z,6.60
2018-11-01T03:59:12.999Z,8.00
2018-11-01T04:01:42.851Z,9.15
2018-11-01T04:04:12.780Z,7.72
2018-11-01T04:06:44.519Z,5.47
2018-11-01T04:09:14.463Z,5.15
2018-11-01T04:11:44.326Z,4.30
2018-11-01T04:14:16.316Z,3.70
2018-11-01T04:16:47.185Z,3.55
2018-11-01T04:19:17.263Z,3.50
2018-11-01T04:21:57.760Z,4.22
2018-11-01T04:24:37.978Z,3.80
2018-11-01T04:27:14.452Z,3.65
2018-11-01T04:29:56.872Z,3.87
2018-11-01T04:32:27.048Z,4.10
2018-11-01T04:35:01.531Z,4.50
2018-11-01T04:37:32.121Z,3.77
2018-11-01T04:40:01.980Z,3.62
2018-11-01T04:42:37.655Z,4.05
2018-11-01T04:45:11.726Z,4.17
2018-11-01T04:47:41.749Z,3.27
2018-11-01T04:50:12.989Z,4.40
2018-11-01T04:52:43.503Z,3.27
2018-11-01T04:55:14.425Z,2.50
2018-11-01T04:57:44.305Z,2.85
2018-11-01T05:00:14.788Z,2.60
2018-11-01T05:02:44.648Z,3.35
2018-11-01T05:05:14.531Z,2.77
2018-11-01T05:07:44.376Z,3.65
2018-11-01T05:10:14.200Z,3.83
2018-11-01T05:12:44.031Z,3.50
2018-11-01T05:15:14.879Z,3.10
2018-11-01T05:17:44.632Z,2.87
2018-11-01T05:20:14.476Z,3.72
2018-11-01T05:22:44.388Z,4.83
2018-11-01T05:25:15.180Z,6.80
2018-11-01T05:27:44.980Z,6.97
2018-11-01T05:30:15.836Z,6.80
2018-11-01T05:32:45.684Z,6.05
2018-11-01T05:35:16.507Z,5.20
2018-11-01T05:37:46.485Z,7.97
2018-11-01T05:40:16.226Z,8.85
2018-11-01T05:42:46.035Z,7.15
2018-11-01T05:45:15.852Z,5.60
2018-11-01T05:47:46.702Z,4.50
2018-11-01T05:50:16.492Z,3.60
2018-11-01T05:52:46.308Z,3.17
2018-11-01T05:55:16.136Z,3.62
2018-11-01T05:57:45.992Z,2.50
2018-11-01T06:00:17.788Z,3.15
2018-11-01T06:02:49.713Z,2.72
2018-11-01T06:05:20.629Z,2.60
2018-11-01T06:07:55.784Z,2.70
2018-11-01T06:10:25.680Z,2.27
2018-11-01T06:12:55.548Z,2.58
2018-11-01T06:15:25.496Z,2.62
2018-11-01T06:17:56.292Z,2.60
2018-11-01T06:20:28.254Z,2.45
2018-11-01T06:22:59.148Z,2.67
2018-11-01T06:25:29.052Z,2.85
2018-11-01T06:28:02.231Z,3.05
2018-11-01T06:30:34.189Z,2.40
2018-11-01T06:33:08.668Z,2.62
2018-11-01T06:35:41.544Z,2.80
2018-11-01T06:38:12.536Z,2.33
2018-11-01T06:40:43.351Z,2.72
2018-11-01T06:43:13.260Z,2.27
2018-11-01T06:45:44.104Z,2.20
2018-11-01T06:48:14.020Z,2.30
2018-11-01T06:50:44.528Z,2.60
2018-11-01T06:53:15.372Z,2.67
2018-11-01T06:55:45.208Z,2.10
2018-11-01T06:58:16.082Z,2.20
2018-11-01T07:00:46.405Z,2.55
2018-11-01T07:03:17.312Z,2.35
2018-11-01T07:05:47.249Z,2.65
2018-11-01T07:08:18.056Z,2.70
2018-11-01T07:10:48.864Z,2.40
2018-11-01T07:13:23.208Z,3.27
2018-11-01T07:15:55.032Z,2.00
2018-11-01T07:18:24.872Z,2.27
2018-11-01T07:20:54.788Z,2.33
2018-11-01T07:23:25.611Z,2.50
2018-11-01T07:25:57.469Z,2.45
2018-11-01T07:28:27.236Z,3.15
2018-11-01T07:31:00.911Z,2.83
2018-11-01T07:33:30.780Z,2.35
2018-11-01T07:36:05.692Z,2.20
2018-11-01T07:38:36.513Z,2.95
2018-11-01T07:41:18.060Z,2.92
2018-11-01T07:43:48.540Z,2.87
2018-11-01T07:46:20.476Z,2.40
2018-11-01T07:48:50.476Z,2.05
2018-11-01T07:51:20.328Z,2.90
2018-11-01T07:53:53.996Z,2.90
2018-11-01T07:56:23.856Z,5.10
2018-11-01T07:58:53.720Z,3.58
2018-11-01T08:01:23.833Z,4.05
2018-11-01T08:03:53.704Z,2.90
2018-11-01T08:06:23.566Z,2.40
2018-11-01T08:08:55.410Z,3.10
2018-11-01T08:11:31.777Z,2.90
2018-11-01T08:14:05.676Z,2.58
2018-11-01T08:16:35.528Z,2.40
2018-11-01T08:19:08.996Z,2.50
2018-11-01T08:21:42.584Z,2.20
2018-11-01T08:24:13.416Z,2.20
2018-11-01T08:26:43.276Z,2.30
2018-11-01T08:29:13.140Z,2.50
2018-11-01T08:31:43.026Z,2.30
2018-11-01T08:34:12.824Z,2.77
2018-11-01T08:36:44.708Z,2.63
2018-11-01T08:39:15.569Z,2.47
2018-11-01T08:41:45.352Z,2.47
2018-11-01T08:44:18.619Z,3.13
2018-11-01T08:46:48.484Z,3.10
2018-11-01T08:51:51.476Z,2.50
2018-11-01T08:54:26.920Z,2.90
2018-11-01T08:57:00.705Z,2.40
2018-11-01T08:59:32.733Z,2.43
2018-11-01T09:02:04.859Z,3.10
2018-11-01T09:04:38.068Z,2.90
2018-11-01T09:07:10.960Z,2.03
2018-11-01T09:09:40.924Z,2.20
2018-11-01T09:12:11.854Z,1.97
2018-11-01T09:14:43.030Z,1.70
2018-11-01T09:17:15.753Z,2.20
2018-11-01T09:19:45.580Z,2.43
2018-11-01T09:22:21.032Z,2.57
2018-11-01T09:24:52.252Z,1.80
2018-11-01T09:27:23.700Z,2.03
2018-11-01T09:29:54.204Z,2.20
2018-11-01T09:32:24.624Z,1.80
2018-11-01T09:34:54.428Z,2.30
2018-11-01T09:37:24.341Z,2.10
2018-11-01T09:39:54.208Z,2.10
2018-11-01T09:42:24.152Z,2.10
2018-11-01T09:44:55.464Z,2.10
2018-11-01T09:47:31.589Z,2.07
2018-11-01T09:50:02.097Z,2.00
2018-11-01T09:52:31.891Z,2.43
2018-11-01T09:55:02.716Z,2.17
2018-11-01T09:57:33.596Z,2.30
2018-11-01T10:00:05.713Z,2.00
2018-11-01T10:02:47.653Z,2.00
2018-11-01T10:05:27.404Z,2.70
2018-11-01T10:07:57.300Z,2.40
2018-11-01T10:10:27.188Z,2.13
2018-11-01T10:13:02.033Z,1.70
2018-11-01T10:15:31.959Z,2.43
2018-11-01T10:18:02.099Z,2.70
2018-11-01T10:20:31.680Z,2.70
2018-11-01T10:23:03.601Z,2.07
2018-11-01T10:25:35.320Z,2.50
2018-11-01T10:28:05.468Z,2.40
2018-11-01T10:30:37.468Z,3.07
2018-11-01T10:33:07.253Z,2.80
2018-11-01T10:35:38.177Z,3.10
2018-11-01T10:38:10.053Z,2.80
2018-11-01T10:40:40.948Z,2.27
2018-11-01T10:43:11.624Z,2.57
2018-11-01T10:45:41.468Z,2.80
2018-11-01T10:48:12.316Z,1.90
2018-11-01T10:50:42.223Z,1.63
2018-11-01T10:53:13.452Z,1.20
2018-11-01T10:55:46.712Z,1.67
2018-11-01T10:58:20.500Z,1.70
2018-11-01T11:01:04.030Z,1.80
2018-11-01T11:03:34.812Z,1.30
2018-11-01T11:06:06.784Z,1.70
2018-11-01T11:08:36.561Z,1.43
2018-11-01T11:11:06.392Z,1.63
2018-11-01T11:13:36.240Z,1.57
2018-11-01T11:16:07.088Z,1.60
2018-11-01T11:18:43.732Z,1.53
2018-11-01T11:21:14.981Z,2.10
2018-11-01T11:23:50.248Z,2.10
2018-11-01T11:26:23.616Z,1.80
2018-11-01T11:28:53.500Z,1.97
2018-11-01T11:31:23.312Z,1.90
2018-11-01T11:33:54.296Z,1.90
2018-11-01T11:36:25.120Z,2.50
2018-11-01T11:38:56.301Z,1.90
2018-11-01T11:41:29.216Z,2.17
2018-11-01T11:44:02.156Z,1.83
2018-11-01T11:46:34.992Z,1.70
2018-11-01T11:49:09.188Z,1.60
2018-11-01T11:51:42.584Z,1.27
2018-11-01T11:54:15.872Z,1.10
2018-11-01T11:56:55.304Z,1.03
2018-11-01T11:59:25.249Z,1.33
2018-11-01T12:01:56.104Z,1.87
2018-11-01T12:04:25.958Z,1.57
2018-11-01T12:06:55.791Z,1.17
2018-11-01T12:09:25.788Z,1.47
2018-11-01T12:11:57.960Z,1.40
2018-11-01T12:14:27.776Z,1.23
2018-11-01T12:17:00.236Z,1.57
2018-11-01T12:19:35.828Z,1.20
2018-11-01T12:22:06.680Z,1.50
2018-11-01T12:24:36.573Z,1.40
2018-11-01T12:27:07.384Z,1.40
2018-11-01T12:29:37.237Z,1.37
2018-11-01T12:32:07.117Z,1.40
2018-11-01T12:34:36.929Z,1.47
2018-11-01T12:37:07.769Z,1.47
2018-11-01T12:39:37.596Z,1.30
2018-11-01T12:42:07.420Z,1.20
2018-11-01T12:44:44.416Z,1.40
2018-11-01T12:47:14.193Z,1.50
2018-11-01T12:49:45.080Z,1.37
2018-11-01T12:52:15.904Z,1.57
2018-11-01T12:54:49.968Z,1.50
2018-11-01T12:57:19.732Z,1.53
2018-11-01T12:59:55.244Z,1.47
2018-11-01T13:02:25.988Z,1.60
2018-11-01T13:04:57.060Z,1.50
2018-11-01T13:07:32.253Z,1.37
2018-11-01T13:10:02.084Z,1.80
2018-11-01T13:12:33.988Z,1.40
2018-11-01T13:15:05.800Z,1.40
2018-11-01T13:17:35.696Z,1.60
2018-11-01T13:20:06.733Z,1.60
2018-11-01T13:22:36.632Z,1.57
2018-11-01T13:25:07.872Z,1.30
2018-11-01T13:27:38.703Z,1.60
2018-11-01T13:30:12.284Z,1.70
2018-11-01T13:32:42.812Z,1.57
2018-11-01T13:35:14.192Z,1.70
2018-11-01T13:37:44.968Z,1.53
2018-11-01T13:40:16.054Z,1.37
2018-11-01T13:42:46.552Z,1.53
2018-11-01T13:45:16.452Z,1.77
2018-11-01T13:47:46.416Z,1.50
2018-11-01T13:50:16.136Z,1.80
2018-11-01T13:52:46.575Z,1.37
2018-11-01T13:55:17.306Z,2.07
2018-11-01T13:57:48.130Z,1.83
2018-11-01T14:00:23.524Z,1.60
2018-11-01T14:02:55.344Z,1.67
2018-11-01T14:05:25.124Z,1.90
2018-11-01T14:07:56.997Z,1.57
2018-11-01T14:10:26.863Z,1.83
2018-11-01T14:13:00.143Z,1.67
2018-11-01T14:15:30.092Z,1.77
2018-11-01T14:18:07.364Z,1.80
2018-11-01T14:20:38.248Z,1.70
2018-11-01T14:23:08.061Z,2.13
2018-11-01T14:25:37.917Z,1.90
2018-11-01T14:28:07.673Z,2.20
2018-11-01T14:30:42.215Z,1.90
2018-11-01T14:33:19.586Z,1.77
2018-11-01T14:35:50.488Z,1.73
2018-11-01T14:38:22.457Z,1.47
2018-11-01T14:40:52.385Z,1.70
2018-11-01T14:43:25.356Z,1.53
2018-11-01T14:45:56.221Z,1.67
2018-11-01T14:48:26.824Z,1.80
2018-11-01T14:50:59.792Z,2.27
2018-11-01T14:53:34.283Z,1.80
2018-11-01T14:56:06.703Z,1.70
2018-11-01T14:58:44.152Z,1.50
2018-11-01T15:01:18.128Z,2.20
2018-11-01T15:03:47.893Z,1.80
2018-11-01T15:06:19.575Z,1.60
2018-11-01T15:08:49.485Z,2.40
2018-11-01T15:11:19.345Z,1.60
2018-11-01T15:13:49.164Z,1.67
2018-11-01T15:16:20.980Z,2.13
2018-11-01T15:18:51.331Z,2.10
2018-11-01T15:21:23.045Z,1.83
2018-11-01T15:23:52.848Z,1.80
2018-11-01T15:26:22.816Z,2.00
2018-11-01T15:28:57.324Z,2.17
2018-11-01T15:31:29.346Z,2.00
2018-11-01T15:34:03.285Z,1.70
2018-11-01T15:36:32.952Z,1.97
2018-11-01T15:39:14.644Z,2.07
2018-11-01T15:41:45.556Z,1.43
2018-11-01T15:44:16.344Z,2.90
2018-11-01T15:46:52.789Z,2.90
2018-11-01T15:49:22.648Z,6.80
2018-11-01T15:51:53.560Z,3.30
2018-11-01T15:54:24.261Z,2.50
2018-11-01T15:56:55.087Z,6.87
2018-11-01T15:59:24.966Z,7.43
2018-11-01T16:02:00.416Z,5.90
2018-11-01T16:04:30.225Z,10.87
2018-11-01T16:07:07.672Z,5.30
2018-11-01T16:09:37.444Z,3.87
2018-11-01T16:12:07.336Z,3.80
2018-11-01T16:14:44.660Z,3.50
2018-11-01T16:17:18.060Z,4.40
2018-11-01T16:19:47.982Z,4.40
2018-11-01T16:22:20.868Z,4.70
2018-11-01T16:24:58.208Z,5.20
2018-11-01T16:27:28.175Z,6.47
2018-11-01T16:30:01.438Z,7.12
2018-11-01T16:32:31.297Z,6.87
2018-11-01T16:35:01.062Z,5.70
2018-11-01T16:37:31.001Z,5.30
2018-11-01T16:40:05.221Z,6.65
2018-11-01T16:42:37.015Z,5.67
2018-11-01T16:45:10.474Z,7.10
2018-11-01T16:47:41.217Z,8.03
2018-11-01T16:50:18.169Z,9.78
2018-11-01T16:52:52.617Z,10.70
2018-11-01T16:55:22.466Z,9.65
2018-11-01T16:57:55.567Z,12.20
2018-11-01T17:00:25.404Z,13.13
2018-11-01T17:02:57.136Z,11.43
2018-11-01T17:05:36.078Z,8.60
2018-11-01T17:08:06.073Z,7.12
2018-11-01T17:10:35.868Z,9.58
2018-11-01T17:13:05.693Z,7.70
2018-11-01T17:15:35.540Z,7.30
2018-11-01T17:18:05.798Z,7.55
2018-11-01T17:20:35.590Z,7.00
2018-11-01T17:23:08.978Z,7.80
2018-11-01T17:25:41.726Z,6.90
2018-11-01T17:28:13.386Z,7.65
2018-11-01T17:30:43.265Z,6.28
2018-11-01T17:33:14.137Z,7.08
2018-11-01T17:35:44.010Z,6.72
2018-11-01T17:38:14.033Z,8.20
2018-11-01T17:40:49.529Z,8.43
2018-11-01T17:43:20.494Z,13.70
2018-11-01T17:45:50.287Z,11.10
2018-11-01T17:48:23.099Z,12.40
2018-11-01T17:50:52.853Z,13.65
2018-11-01T17:53:22.761Z,16.07
2018-11-01T17:55:52.664Z,16.25
2018-11-01T17:58:24.475Z,13.50
2018-11-01T18:00:54.580Z,12.47
2018-11-01T18:03:28.529Z,11.28
2018-11-01T18:06:00.752Z,11.30
2018-11-01T18:08:30.728Z,13.65
2018-11-01T18:11:00.513Z,12.37
2018-11-01T18:13:30.453Z,10.72
2018-11-01T18:16:00.261Z,9.30
2018-11-01T18:18:32.064Z,10.15
2018-11-01T18:21:02.337Z,9.43
2018-11-01T18:23:34.198Z,9.73
2018-11-01T18:26:07.374Z,8.13
2018-11-01T18:28:37.318Z,11.70
2018-11-01T18:31:07.173Z,14.58
2018-11-01T18:33:36.993Z,13.70
2018-11-01T18:36:06.821Z,12.18
2018-11-01T18:38:36.673Z,10.75
2018-11-01T18:41:10.076Z,10.40
2018-11-01T18:43:39.940Z,10.68
2018-11-01T18:46:13.569Z,9.55
2018-11-01T18:48:44.545Z,10.55
2018-11-01T18:51:14.354Z,11.33
2018-11-01T18:53:46.178Z,9.90
2018-11-01T18:56:19.468Z,9.35
2018-11-01T18:58:50.194Z,9.60
2018-11-01T19:01:25.277Z,9.25
2018-11-01T19:03:55.181Z,6.90
2018-11-01T19:06:25.001Z,8.70
2018-11-01T19:08:56.078Z,8.40
2018-11-01T19:11:25.890Z,8.05
2018-11-01T19:13:59.216Z,9.10
2018-11-01T19:16:29.980Z,8.60
2018-11-01T19:18:59.769Z,8.28
2018-11-01T19:21:31.811Z,7.65
2018-11-01T19:24:02.584Z,7.50
2018-11-01T19:26:32.397Z,8.53
2018-11-01T19:29:04.240Z,8.45
2018-11-01T19:31:34.365Z,8.73
2018-11-01T19:34:04.387Z,9.05
2018-11-01T19:36:35.173Z,9.13
2018-11-01T19:39:08.009Z,8.80
2018-11-01T19:41:38.921Z,10.53
2018-11-01T19:44:08.721Z,15.48
2018-11-01T19:46:40.497Z,14.78
2018-11-01T19:49:10.434Z,9.85
2018-11-01T19:51:42.303Z,9.93
2018-11-01T19:54:13.175Z,16.05
2018-11-01T19:56:43.053Z,17.52
2018-11-01T19:59:13.006Z,18.60
2018-11-01T20:01:43.918Z,18.52
2018-11-01T20:04:16.648Z,19.45
2018-11-01T20:06:51.372Z,19.67
2018-11-01T20:09:22.251Z,21.20
2018-11-01T20:11:53.213Z,28.70
2018-11-01T20:14:23.036Z,28.83
2018-11-01T20:16:53.913Z,28.62
2018-11-01T20:19:24.979Z,25.72
2018-11-01T20:21:57.801Z,23.83
2018-11-01T20:24:27.752Z,24.77
2018-11-01T20:27:04.085Z,20.62
2018-11-01T20:29:35.057Z,21.80
2018-11-01T20:32:05.297Z,48.65
2018-11-01T20:34:36.165Z,29.75
2018-11-01T20:37:06.201Z,24.47
2018-11-01T20:39:36.005Z,22.22
2018-11-01T20:42:06.857Z,21.90
2018-11-01T20:44:36.645Z,24.40
2018-11-01T20:47:06.901Z,23.45
2018-11-01T20:49:36.833Z,21.37
2018-11-01T20:52:06.761Z,21.10
2018-11-01T20:54:36.625Z,20.80
2018-11-01T20:57:08.592Z,19.98
2018-11-01T20:59:38.421Z,18.73
2018-11-01T21:02:08.337Z,18.05
2018-11-01T21:04:38.214Z,17.67
2018-11-01T21:07:09.081Z,18.57
2018-11-01T21:09:38.967Z,18.10
2018-11-01T21:12:10.800Z,19.75
2018-11-01T21:14:50.753Z,18.05
2018-11-01T21:17:25.137Z,20.82
2018-11-01T21:19:55.945Z,18.42
2018-11-01T21:22:25.746Z,19.30
2018-11-01T21:24:59.125Z,17.95
2018-11-01T21:27:29.024Z,17.62
2018-11-01T21:29:59.905Z,17.27
2018-11-01T21:32:30.737Z,19.05
2018-11-01T21:35:02.715Z,18.75
2018-11-01T21:37:37.941Z,18.67
2018-11-01T21:40:12.026Z,19.52
2018-11-01T21:42:41.858Z,21.15
2018-11-01T21:45:13.053Z,20.72
2018-11-01T21:47:43.497Z,19.57
2018-11-01T21:50:25.353Z,20.57
2018-11-01T21:52:56.211Z,20.23
2018-11-01T21:55:26.067Z,19.92
2018-11-01T21:57:59.485Z,19.27
2018-11-01T22:00:29.377Z,17.92
2018-11-01T22:03:00.193Z,19.90
2018-11-01T22:05:31.021Z,19.05
2018-11-01T22:08:01.905Z,18.45
2018-11-01T22:10:34.677Z,18.48
2018-11-01T22:13:06.550Z,20.45
2018-11-01T22:15:36.449Z,18.57
2018-11-01T22:18:06.789Z,18.48
2018-11-01T22:20:36.725Z,20.30
2018-11-01T22:23:06.717Z,20.25
2018-11-01T22:25:36.620Z,19.42
2018-11-01T22:28:07.617Z,19.67
2018-11-01T22:30:38.034Z,19.87
2018-11-01T22:33:08.917Z,18.73
2018-11-01T22:35:43.869Z,18.45
2018-11-01T22:38:14.871Z,19.67
2018-11-01T22:40:44.889Z,19.25
2018-11-01T22:43:14.704Z,17.15
2018-11-01T22:45:46.557Z,19.05
2018-11-01T22:48:17.322Z,17.60
2018-11-01T22:50:47.225Z,18.07
2018-11-01T22:53:26.441Z,17.25
2018-11-01T22:55:59.505Z,16.42
2018-11-01T22:58:31.381Z,18.70
2018-11-01T23:01:05.982Z,19.27
2018-11-01T23:03:36.853Z,18.20
2018-11-01T23:06:06.704Z,17.07
2018-11-01T23:08:36.605Z,18.20
2018-11-01T23:11:06.517Z,18.15
2018-11-01T23:13:36.381Z,15.30
2018-11-01T23:16:12.659Z,18.20
2018-11-01T23:18:44.825Z,17.73
2018-11-01T23:21:14.662Z,14.98
2018-11-01T23:23:44.513Z,16.00
2018-11-01T23:26:14.343Z,16.55
2018-11-01T23:28:44.061Z,17.23
2018-11-01T23:31:15.954Z,15.85
2018-11-01T23:33:45.762Z,16.65
2018-11-01T23:36:15.659Z,17.35
2018-11-01T23:38:51.265Z,19.85
2018-11-01T23:41:32.181Z,19.70
2018-11-01T23:44:12.020Z,17.32
2018-11-01T23:46:47.117Z,22.70
2018-11-01T23:49:23.041Z,21.42
2018-11-01T23:51:59.349Z,17.87
2018-11-01T23:54:29.189Z,17.42
2018-11-01T23:57:01.104Z,17.25
2018-11-01T23:59:30.940Z,17.35
